createdAt,value
2023-11-16T00:00:06.867Z,99.99
2023-11-16T00:01:06.827Z,99.99
2023-11-16T00:02:06.844Z,99.99
2023-11-16T00:03:07.011Z,99.99
2023-11-16T00:04:06.871Z,99.99
2023-11-16T00:05:06.791Z,99.99
2023-11-16T00:06:06.803Z,99.99
2023-11-16T00:07:06.774Z,99.99
2023-11-16T00:08:06.770Z,99.99
2023-11-16T00:09:06.803Z,99.99
2023-11-16T00:10:06.759Z,99.99
2023-11-16T00:11:06.741Z,99.99
2023-11-16T00:12:06.774Z,99.99
2023-11-16T00:13:06.812Z,99.99
2023-11-16T00:14:06.742Z,99.99
2023-11-16T00:15:06.778Z,99.99
2023-11-16T00:16:06.739Z,99.99
2023-11-16T00:17:06.718Z,99.99
2023-11-16T00:18:07.010Z,99.99
2023-11-16T00:19:06.697Z,99.99
2023-11-16T00:20:06.674Z,99.99
2023-11-16T00:21:06.705Z,99.99
2023-11-16T00:22:06.657Z,99.99
2023-11-16T00:23:06.656Z,99.99
2023-11-16T00:24:06.658Z,99.99
2023-11-16T00:25:06.641Z,99.99
2023-11-16T00:26:06.630Z,99.99
2023-11-16T00:27:06.641Z,99.99
2023-11-16T00:28:06.622Z,99.99
2023-11-16T00:29:06.615Z,99.99
2023-11-16T00:30:06.646Z,99.99
2023-11-16T00:31:06.601Z,99.99
2023-11-16T00:32:06.589Z,99.99
2023-11-16T00:33:06.773Z,99.99
2023-11-16T00:34:06.561Z,99.99
2023-11-16T00:35:06.580Z,99.99
2023-11-16T00:36:06.567Z,99.99
2023-11-16T00:37:06.542Z,99.99
2023-11-16T00:38:06.527Z,99.99
2023-11-16T00:39:06.597Z,99.99
2023-11-16T00:40:06.512Z,99.99
2023-11-16T00:41:06.511Z,99.99
2023-11-16T00:42:06.537Z,99.99
2023-11-16T00:43:06.505Z,99.99
2023-11-16T00:44:06.507Z,99.99
2023-11-16T00:45:06.538Z,99.99
2023-11-16T00:46:06.553Z,99.99
2023-11-16T00:47:06.464Z,99.99
2023-11-16T00:48:06.513Z,99.99
2023-11-16T00:49:06.444Z,99.99
2023-11-16T00:50:06.462Z,99.99
2023-11-16T00:51:06.441Z,99.99
2023-11-16T00:52:06.424Z,99.99
2023-11-16T00:53:06.408Z,99.99
2023-11-16T00:54:06.461Z,99.99
2023-11-16T00:55:06.477Z,99.99
2023-11-16T00:56:06.389Z,99.99
2023-11-16T00:57:06.435Z,99.99
2023-11-16T00:58:06.400Z,99.99
2023-11-16T00:59:06.366Z,99.99
2023-11-16T01:00:06.429Z,99.99
2023-11-16T01:01:06.386Z,99.99
2023-11-16T01:02:06.455Z,99.99
2023-11-16T01:03:06.402Z,99.99
2023-11-16T01:04:06.351Z,99.99
2023-11-16T01:05:06.326Z,99.99
2023-11-16T01:06:06.360Z,99.99
2023-11-16T01:07:06.305Z,99.99
2023-11-16T01:08:06.296Z,99.99
2023-11-16T01:09:06.304Z,99.99
2023-11-16T01:10:06.283Z,99.99
2023-11-16T01:11:06.273Z,99.99
2023-11-16T01:12:06.289Z,99.99
2023-11-16T01:13:06.250Z,99.99
2023-11-16T01:14:06.245Z,99.99
2023-11-16T01:15:06.248Z,99.99
2023-11-16T01:16:06.264Z,99.99
2023-11-16T01:17:06.220Z,99.99
2023-11-16T01:18:06.324Z,99.99
2023-11-16T01:19:06.204Z,99.99
2023-11-16T01:20:06.221Z,99.99
2023-11-16T01:21:06.229Z,99.99
2023-11-16T01:22:06.181Z,99.99
2023-11-16T01:23:06.183Z,99.99
2023-11-16T01:24:06.996Z,99.99
2023-11-16T01:25:06.165Z,99.99
2023-11-16T01:26:06.157Z,99.99
2023-11-16T01:27:06.173Z,99.99
2023-11-16T01:28:06.153Z,99.99
2023-11-16T01:29:06.156Z,99.99
2023-11-16T01:30:06.121Z,99.99
2023-11-16T01:31:06.145Z,99.99
2023-11-16T01:32:06.115Z,99.99
2023-11-16T01:33:06.148Z,99.99
2023-11-16T01:34:06.110Z,99.99
2023-11-16T01:35:06.177Z,99.99
2023-11-16T01:36:06.106Z,99.99
2023-11-16T01:37:06.071Z,99.99
2023-11-16T01:38:06.061Z,99.99
2023-11-16T01:39:06.070Z,99.99
2023-11-16T01:40:06.040Z,99.99
2023-11-16T01:41:06.035Z,99.99
2023-11-16T01:42:06.063Z,99.99
2023-11-16T01:43:06.009Z,99.99
2023-11-16T01:44:06.016Z,99.99
2023-11-16T01:45:06.066Z,99.99
2023-11-16T01:46:06.027Z,99.99
2023-11-16T01:47:05.984Z,99.99
2023-11-16T01:48:06.047Z,99.99
2023-11-16T01:49:05.968Z,99.99
2023-11-16T01:50:05.985Z,99.99
2023-11-16T01:51:05.965Z,99.99
2023-11-16T01:52:05.951Z,99.99
2023-11-16T01:53:05.954Z,99.99
2023-11-16T01:54:05.956Z,99.99
2023-11-16T01:55:05.924Z,99.99
2023-11-16T01:56:05.918Z,99.99
2023-11-16T01:57:05.969Z,99.99
2023-11-16T01:58:05.899Z,99.99
2023-11-16T01:59:05.890Z,99.99
2023-11-16T02:00:05.940Z,99.99
2023-11-16T02:01:05.930Z,99.99
2023-11-16T02:02:05.885Z,99.99
2023-11-16T02:03:06.029Z,99.99
2023-11-16T02:04:09.656Z,99.99
2023-11-16T02:05:05.852Z,99.99
2023-11-16T02:06:05.898Z,99.99
2023-11-16T02:07:05.830Z,99.99
2023-11-16T02:08:05.825Z,99.99
2023-11-16T02:09:05.881Z,99.99
2023-11-16T02:10:05.804Z,99.99
2023-11-16T02:11:05.794Z,99.99
2023-11-16T02:12:05.800Z,99.99
2023-11-16T02:13:05.783Z,99.99
2023-11-16T02:14:05.787Z,99.99
2023-11-16T02:15:05.795Z,99.99
2023-11-16T02:16:05.799Z,99.99
2023-11-16T02:17:05.747Z,99.99
2023-11-16T02:18:05.779Z,99.99
2023-11-16T02:19:05.746Z,99.99
2023-11-16T02:20:05.731Z,99.99
2023-11-16T02:21:05.750Z,99.99
2023-11-16T02:22:05.734Z,99.99
2023-11-16T02:23:05.696Z,99.99
2023-11-16T02:24:05.730Z,99.99
2023-11-16T02:25:05.680Z,99.99
2023-11-16T02:26:05.677Z,99.99
2023-11-16T02:27:05.738Z,99.99
2023-11-16T02:28:05.661Z,99.99
2023-11-16T02:29:05.652Z,99.99
2023-11-16T02:30:05.703Z,99.99
2023-11-16T02:31:05.639Z,99.99
2023-11-16T02:32:05.643Z,99.99
2023-11-16T02:33:05.682Z,99.99
2023-11-16T02:34:05.613Z,99.99
2023-11-16T02:35:05.602Z,99.99
2023-11-16T02:36:05.654Z,99.99
2023-11-16T02:37:05.590Z,99.99
2023-11-16T02:38:05.599Z,99.99
2023-11-16T02:39:05.614Z,99.99
2023-11-16T02:40:05.577Z,99.99
2023-11-16T02:41:05.561Z,99.99
2023-11-16T02:42:05.611Z,99.99
2023-11-16T02:43:05.538Z,99.99
2023-11-16T02:44:05.541Z,99.99
2023-11-16T02:45:05.574Z,99.99
2023-11-16T02:46:05.554Z,99.99
2023-11-16T02:47:05.556Z,99.99
2023-11-16T02:48:05.623Z,99.99
2023-11-16T02:49:05.573Z,99.99
2023-11-16T02:50:05.491Z,99.99
2023-11-16T02:51:05.497Z,99.99
2023-11-16T02:52:05.478Z,99.99
2023-11-16T02:53:05.480Z,99.99
2023-11-16T02:54:05.506Z,99.99
2023-11-16T02:55:05.451Z,99.99
2023-11-16T02:56:05.449Z,99.99
2023-11-16T02:57:05.528Z,99.99
2023-11-16T02:58:05.433Z,99.99
2023-11-16T02:59:05.429Z,99.99
2023-11-16T03:00:05.523Z,99.99
2023-11-16T03:01:05.404Z,99.99
2023-11-16T03:02:05.389Z,99.99
2023-11-16T03:03:05.514Z,99.99
2023-11-16T03:04:05.556Z,99.99
2023-11-16T03:05:05.376Z,99.99
2023-11-16T03:06:05.431Z,99.99
2023-11-16T03:07:05.359Z,99.99
2023-11-16T03:08:05.364Z,99.99
2023-11-16T03:09:05.363Z,99.99
2023-11-16T03:10:05.347Z,99.99
2023-11-16T03:11:05.321Z,99.99
2023-11-16T03:12:05.334Z,99.99
2023-11-16T03:13:05.513Z,99.99
2023-11-16T03:14:05.294Z,99.99
2023-11-16T03:15:05.328Z,99.99
2023-11-16T03:16:05.291Z,99.99
2023-11-16T03:17:05.272Z,99.99
2023-11-16T03:18:05.412Z,99.99
2023-11-16T03:19:05.261Z,99.99
2023-11-16T03:20:05.250Z,99.99
2023-11-16T03:21:05.296Z,99.99
2023-11-16T03:22:05.239Z,99.99
2023-11-16T03:23:05.222Z,99.99
2023-11-16T03:24:05.233Z,99.99
2023-11-16T03:25:05.206Z,99.99
2023-11-16T03:26:05.233Z,99.99
2023-11-16T03:27:05.206Z,99.99
2023-11-16T03:28:05.198Z,99.99
2023-11-16T03:29:05.177Z,99.99
2023-11-16T03:30:05.381Z,99.99
2023-11-16T03:31:05.234Z,99.99
2023-11-16T03:32:05.144Z,99.99
2023-11-16T03:33:05.316Z,99.99
2023-11-16T03:34:05.130Z,99.99
2023-11-16T03:35:05.126Z,99.99
2023-11-16T03:36:05.133Z,99.99
2023-11-16T03:37:05.116Z,99.99
2023-11-16T03:38:05.100Z,99.99
2023-11-16T03:39:05.206Z,99.99
2023-11-16T03:40:05.096Z,99.99
2023-11-16T03:41:05.083Z,99.99
2023-11-16T03:42:05.183Z,99.99
2023-11-16T03:43:05.051Z,99.99
2023-11-16T03:44:05.052Z,99.99
2023-11-16T03:45:05.053Z,99.99
2023-11-16T03:46:05.069Z,99.99
2023-11-16T03:47:05.029Z,99.99
2023-11-16T03:48:05.091Z,99.99
2023-11-16T03:49:05.016Z,99.99
2023-11-16T03:50:05.017Z,99.99
2023-11-16T03:51:05.007Z,99.99
2023-11-16T03:52:04.989Z,99.99
2023-11-16T03:53:04.973Z,99.99
2023-11-16T03:54:04.973Z,99.99
2023-11-16T03:55:04.961Z,99.99
2023-11-16T03:56:04.951Z,99.99
2023-11-16T03:57:04.941Z,99.99
2023-11-16T03:58:04.963Z,99.99
2023-11-16T03:59:04.932Z,99.99
2023-11-16T04:00:04.920Z,99.99
2023-11-16T04:01:04.927Z,99.99
2023-11-16T04:02:04.949Z,99.99
2023-11-16T04:03:05.029Z,99.99
2023-11-16T04:04:04.981Z,99.99
2023-11-16T04:05:04.894Z,99.99
2023-11-16T04:06:04.877Z,99.99
2023-11-16T04:07:04.861Z,99.99
2023-11-16T04:08:04.858Z,99.99
2023-11-16T04:09:04.842Z,99.99
2023-11-16T04:10:04.834Z,99.99
2023-11-16T04:11:04.831Z,99.99
2023-11-16T04:12:04.824Z,99.99
2023-11-16T04:13:04.810Z,99.99
2023-11-16T04:14:04.829Z,99.99
2023-11-16T04:15:04.793Z,99.99
2023-11-16T04:16:04.790Z,99.99
2023-11-16T04:17:04.784Z,99.99
2023-11-16T04:18:04.823Z,99.99
2023-11-16T04:19:04.818Z,99.99
2023-11-16T04:20:04.763Z,99.99
2023-11-16T04:21:04.744Z,99.99
2023-11-16T04:22:04.739Z,99.99
2023-11-16T04:23:04.733Z,99.99
2023-11-16T04:24:04.722Z,99.99
2023-11-16T04:25:04.765Z,99.99
2023-11-16T04:26:04.710Z,99.99
2023-11-16T04:27:04.720Z,99.99
2023-11-16T04:28:04.691Z,99.99
2023-11-16T04:29:04.683Z,99.99
2023-11-16T04:30:04.701Z,99.99
2023-11-16T04:31:04.806Z,99.99
2023-11-16T04:32:04.664Z,99.99
2023-11-16T04:33:04.711Z,99.99
2023-11-16T04:34:04.657Z,99.99
2023-11-16T04:35:04.640Z,99.99
2023-11-16T04:36:04.649Z,99.99
2023-11-16T04:37:04.621Z,99.99
2023-11-16T04:38:04.617Z,99.99
2023-11-16T04:39:04.607Z,99.99
2023-11-16T04:40:04.600Z,99.99
2023-11-16T04:41:04.598Z,99.99
2023-11-16T04:42:04.578Z,99.99
2023-11-16T04:43:04.577Z,99.99
2023-11-16T04:44:04.581Z,99.99
2023-11-16T04:45:04.561Z,99.99
2023-11-16T04:46:04.579Z,99.99
2023-11-16T04:47:04.542Z,99.99
2023-11-16T04:48:04.608Z,99.99
2023-11-16T04:49:04.568Z,99.99
2023-11-16T04:50:04.523Z,99.99
2023-11-16T04:51:04.511Z,99.99
2023-11-16T04:52:04.507Z,99.99
2023-11-16T04:53:04.496Z,99.99
2023-11-16T04:54:04.488Z,99.99
2023-11-16T04:55:04.478Z,99.99
2023-11-16T04:56:04.467Z,99.99
2023-11-16T04:57:04.469Z,99.99
2023-11-16T04:58:04.452Z,99.99
2023-11-16T04:59:04.451Z,99.99
2023-11-16T05:00:04.439Z,99.99
2023-11-16T05:01:04.488Z,99.99
2023-11-16T05:02:04.444Z,99.99
2023-11-16T05:03:04.475Z,99.99
2023-11-16T05:04:04.560Z,99.99
2023-11-16T05:05:04.398Z,99.99
2023-11-16T05:06:04.391Z,99.99
2023-11-16T05:07:04.384Z,99.99
2023-11-16T05:08:04.369Z,99.99
2023-11-16T05:09:04.362Z,99.99
2023-11-16T05:10:04.369Z,99.99
2023-11-16T05:11:04.356Z,99.99
2023-11-16T05:12:04.340Z,99.99
2023-11-16T05:13:04.331Z,99.99
2023-11-16T05:14:04.347Z,99.99
2023-11-16T05:15:04.318Z,99.99
2023-11-16T05:16:04.397Z,99.99
2023-11-16T05:17:04.306Z,99.99
2023-11-16T05:18:04.358Z,99.99
2023-11-16T05:19:04.279Z,99.99
2023-11-16T05:20:04.277Z,99.99
2023-11-16T05:21:04.265Z,99.99
2023-11-16T05:22:04.257Z,99.99
2023-11-16T05:23:04.250Z,99.99
2023-11-16T05:24:04.240Z,99.99
2023-11-16T05:25:04.242Z,99.99
2023-11-16T05:26:04.224Z,99.99
2023-11-16T05:27:04.235Z,99.99
2023-11-16T05:28:04.207Z,99.99
2023-11-16T05:29:04.205Z,99.99
2023-11-16T05:30:04.217Z,99.99
2023-11-16T05:31:04.231Z,99.99
2023-11-16T05:32:04.179Z,99.99
2023-11-16T05:33:04.204Z,99.99
2023-11-16T05:34:04.188Z,99.99
2023-11-16T05:35:04.155Z,99.99
2023-11-16T05:36:04.145Z,99.99
2023-11-16T05:37:04.143Z,99.99
2023-11-16T05:38:04.128Z,99.99
2023-11-16T05:39:04.120Z,99.99
2023-11-16T05:40:04.122Z,99.99
2023-11-16T05:41:04.117Z,99.99
2023-11-16T05:42:04.099Z,99.99
2023-11-16T05:43:04.090Z,99.99
2023-11-16T05:44:04.084Z,99.99
2023-11-16T05:45:04.076Z,99.99
2023-11-16T05:46:04.258Z,99.99
2023-11-16T05:47:04.053Z,99.99
2023-11-16T05:48:04.074Z,99.99
2023-11-16T05:49:04.035Z,99.99
2023-11-16T05:50:04.076Z,99.99
2023-11-16T05:51:04.047Z,99.99
2023-11-16T05:52:04.049Z,99.99
2023-11-16T05:53:04.032Z,99.99
2023-11-16T05:54:04.001Z,99.99
2023-11-16T05:55:03.986Z,99.99
2023-11-16T05:56:03.989Z,99.99
2023-11-16T05:57:03.976Z,99.99
2023-11-16T05:58:03.969Z,99.99
2023-11-16T05:59:03.962Z,99.99
2023-11-16T06:00:03.977Z,99.99
2023-11-16T06:01:03.990Z,99.99
2023-11-16T06:02:03.943Z,99.99
2023-11-16T06:03:04.023Z,99.99
2023-11-16T06:04:04.022Z,99.99
2023-11-16T06:05:03.978Z,99.99
2023-11-16T06:06:03.920Z,99.99
2023-11-16T06:07:03.898Z,99.99
2023-11-16T06:08:03.898Z,99.99
2023-11-16T06:09:03.905Z,99.99
2023-11-16T06:10:03.869Z,99.99
2023-11-16T06:11:03.872Z,99.99
2023-11-16T06:12:03.852Z,99.99
2023-11-16T06:13:03.874Z,99.99
2023-11-16T06:14:03.844Z,99.99
2023-11-16T06:15:03.841Z,99.99
2023-11-16T06:16:03.871Z,99.99
2023-11-16T06:17:03.809Z,99.99
2023-11-16T06:18:04.099Z,99.99
2023-11-16T06:19:03.795Z,99.99
2023-11-16T06:20:03.792Z,99.99
2023-11-16T06:21:03.784Z,99.99
2023-11-16T06:22:03.809Z,99.99
2023-11-16T06:23:03.799Z,99.99
2023-11-16T06:24:03.756Z,99.99
2023-11-16T06:25:03.751Z,99.99
2023-11-16T06:26:03.738Z,99.99
2023-11-16T06:27:03.735Z,99.99
2023-11-16T06:28:03.721Z,99.99
2023-11-16T06:29:03.718Z,99.99
2023-11-16T06:30:03.705Z,99.99
2023-11-16T06:31:03.696Z,99.99
2023-11-16T06:32:03.688Z,99.99
2023-11-16T06:33:03.724Z,99.99
2023-11-16T06:34:03.672Z,99.99
2023-11-16T06:35:03.659Z,99.99
2023-11-16T06:36:03.681Z,99.99
2023-11-16T06:37:03.660Z,99.99
2023-11-16T06:38:03.662Z,99.99
2023-11-16T06:39:03.626Z,99.99
2023-11-16T06:40:03.619Z,99.99
2023-11-16T06:41:03.618Z,99.99
2023-11-16T06:42:03.630Z,99.99
2023-11-16T06:43:03.595Z,99.99
2023-11-16T06:44:03.580Z,99.99
2023-11-16T06:45:03.572Z,99.99
2023-11-16T06:46:03.621Z,99.99
2023-11-16T06:47:03.560Z,99.99
2023-11-16T06:48:03.592Z,99.99
2023-11-16T06:49:03.574Z,99.99
2023-11-16T06:50:03.553Z,99.99
2023-11-16T06:51:03.526Z,99.99
2023-11-16T06:52:03.524Z,99.99
2023-11-16T06:53:03.515Z,99.99
2023-11-16T06:54:03.552Z,99.99
2023-11-16T06:55:03.543Z,99.99
2023-11-16T06:56:03.483Z,99.99
2023-11-16T06:57:03.521Z,99.99
2023-11-16T06:58:03.475Z,99.99
2023-11-16T06:59:03.462Z,99.99
2023-11-16T07:00:03.460Z,99.99
2023-11-16T07:01:03.451Z,99.99
2023-11-16T07:02:03.465Z,99.99
2023-11-16T07:03:03.464Z,99.99
2023-11-16T07:04:03.489Z,99.99
2023-11-16T07:05:03.411Z,99.99
2023-11-16T07:06:03.405Z,99.99
2023-11-16T07:07:03.408Z,99.99
2023-11-16T07:08:03.385Z,99.99
2023-11-16T07:09:03.388Z,99.99
2023-11-16T07:10:03.389Z,99.99
2023-11-16T07:11:03.363Z,99.99
2023-11-16T07:12:03.350Z,99.99
2023-11-16T07:13:03.416Z,99.99
2023-11-16T07:14:03.338Z,99.99
2023-11-16T07:15:03.327Z,99.99
2023-11-16T07:16:03.328Z,99.99
2023-11-16T07:17:03.437Z,99.99
2023-11-16T07:18:03.398Z,99.99
2023-11-16T07:19:03.361Z,99.99
2023-11-16T07:20:03.292Z,99.99
2023-11-16T07:21:03.275Z,99.99
2023-11-16T07:22:03.267Z,99.99
2023-11-16T07:23:03.262Z,99.99
2023-11-16T07:24:03.255Z,99.99
2023-11-16T07:25:03.244Z,99.99
2023-11-16T07:26:03.260Z,99.99
2023-11-16T07:27:03.241Z,99.99
2023-11-16T07:28:03.306Z,99.99
2023-11-16T07:29:03.225Z,99.99
2023-11-16T07:30:03.206Z,99.99
2023-11-16T07:31:03.286Z,99.99
2023-11-16T07:32:03.182Z,99.99
2023-11-16T07:33:05.761Z,99.99
2023-11-16T07:34:03.168Z,99.99
2023-11-16T07:35:03.161Z,99.99
2023-11-16T07:36:03.160Z,99.99
2023-11-16T07:37:03.142Z,99.99
2023-11-16T07:38:03.270Z,99.99
2023-11-16T07:39:03.123Z,99.99
2023-11-16T07:40:05.138Z,99.99
2023-11-16T07:41:03.115Z,99.99
2023-11-16T07:42:03.130Z,99.99
2023-11-16T07:43:03.106Z,99.99
2023-11-16T07:44:03.103Z,99.99
2023-11-16T07:45:03.072Z,99.99
2023-11-16T07:46:03.086Z,99.99
2023-11-16T07:47:03.135Z,99.99
2023-11-16T07:48:03.102Z,99.99
2023-11-16T07:49:03.095Z,99.99
2023-11-16T07:50:03.040Z,99.99
2023-11-16T07:51:03.042Z,99.99
2023-11-16T07:52:03.023Z,99.99
2023-11-16T07:53:03.027Z,99.99
2023-11-16T07:54:03.010Z,99.99
2023-11-16T07:55:02.996Z,99.99
2023-11-16T07:56:02.988Z,99.99
2023-11-16T07:57:02.984Z,99.99
2023-11-16T07:58:03.000Z,99.99
2023-11-16T07:59:02.989Z,99.99
2023-11-16T08:00:04.077Z,99.99
2023-11-16T08:01:03.001Z,99.99
2023-11-16T08:02:03.090Z,99.99
2023-11-16T08:03:03.047Z,99.99
2023-11-16T08:04:03.074Z,99.99
2023-11-16T08:05:03.046Z,99.99
2023-11-16T08:06:02.910Z,99.99
2023-11-16T08:07:02.959Z,99.99
2023-11-16T08:08:02.893Z,99.99
2023-11-16T08:09:02.876Z,99.99
2023-11-16T08:10:02.938Z,99.99
2023-11-16T08:11:02.885Z,99.99
2023-11-16T08:12:02.864Z,99.99
2023-11-16T08:13:02.848Z,99.99
2023-11-16T08:14:02.864Z,99.99
2023-11-16T08:15:02.890Z,99.99
2023-11-16T08:16:02.866Z,99.99
2023-11-16T08:17:02.812Z,99.99
2023-11-16T08:18:02.856Z,99.99
2023-11-16T08:19:02.816Z,99.99
2023-11-16T08:20:02.817Z,99.99
2023-11-16T08:21:02.782Z,99.99
2023-11-16T08:22:02.972Z,99.99
2023-11-16T08:23:02.760Z,99.99
2023-11-16T08:24:02.774Z,99.99
2023-11-16T08:25:02.839Z,99.99
2023-11-16T08:26:02.744Z,99.99
2023-11-16T08:27:02.732Z,99.99
2023-11-16T08:28:02.953Z,99.99
2023-11-16T08:29:02.719Z,99.99
2023-11-16T08:30:02.738Z,99.99
2023-11-16T08:31:04.154Z,99.99
2023-11-16T08:32:02.744Z,99.99
2023-11-16T08:33:02.706Z,99.99
2023-11-16T08:34:02.681Z,99.99
2023-11-16T08:35:02.675Z,99.99
2023-11-16T08:36:02.662Z,99.99
2023-11-16T08:37:02.655Z,99.99
2023-11-16T08:38:02.653Z,99.99
2023-11-16T08:39:02.641Z,99.99
2023-11-16T08:40:02.638Z,99.99
2023-11-16T08:41:02.684Z,99.99
2023-11-16T08:42:02.641Z,99.99
2023-11-16T08:43:02.620Z,99.99
2023-11-16T08:44:02.611Z,99.99
2023-11-16T08:45:02.618Z,99.99
2023-11-16T08:46:02.841Z,99.99
2023-11-16T08:47:02.575Z,99.99
2023-11-16T08:48:02.628Z,99.99
2023-11-16T08:49:02.608Z,99.99
2023-11-16T08:50:02.567Z,99.99
2023-11-16T08:51:04.331Z,99.99
2023-11-16T08:52:02.567Z,99.99
2023-11-16T08:53:02.532Z,99.99
2023-11-16T08:54:02.513Z,99.99
2023-11-16T08:55:02.512Z,99.99
2023-11-16T08:56:02.496Z,99.99
2023-11-16T08:57:02.496Z,99.99
2023-11-16T08:58:02.490Z,99.99
2023-11-16T08:59:02.486Z,99.99
2023-11-16T09:00:02.467Z,99.99
2023-11-16T09:01:02.525Z,99.99
2023-11-16T09:02:02.485Z,99.99
2023-11-16T09:03:02.595Z,99.99
2023-11-16T09:04:02.495Z,99.99
2023-11-16T09:05:02.424Z,99.99
2023-11-16T09:06:02.449Z,99.99
2023-11-16T09:07:02.455Z,99.99
2023-11-16T09:08:02.548Z,99.99
2023-11-16T09:09:02.394Z,99.99
2023-11-16T09:10:02.503Z,99.99
2023-11-16T09:11:02.400Z,99.99
2023-11-16T09:12:02.396Z,99.99
2023-11-16T09:13:02.380Z,99.99
2023-11-16T09:14:02.370Z,99.99
2023-11-16T09:15:02.370Z,99.99
2023-11-16T09:16:02.386Z,99.99
2023-11-16T09:17:10.181Z,99.99
2023-11-16T09:18:02.484Z,99.99
2023-11-16T09:19:02.451Z,99.99
2023-11-16T09:20:02.309Z,99.99
2023-11-16T09:21:02.305Z,99.99
2023-11-16T09:22:02.292Z,99.99
2023-11-16T09:23:02.298Z,99.99
2023-11-16T09:24:02.285Z,99.99
2023-11-16T09:25:02.324Z,99.99
2023-11-16T09:26:02.269Z,99.99
2023-11-16T09:27:02.310Z,99.99
2023-11-16T09:28:02.462Z,99.99
2023-11-16T09:29:07.935Z,99.99
2023-11-16T09:30:02.259Z,99.99
2023-11-16T09:31:02.390Z,99.99
2023-11-16T09:32:02.219Z,99.99
2023-11-16T09:33:02.308Z,99.99
2023-11-16T09:34:02.547Z,99.99
2023-11-16T09:35:09.979Z,99.99
2023-11-16T09:36:04.481Z,99.99
2023-11-16T09:37:02.219Z,99.99
2023-11-16T09:38:02.176Z,99.99
2023-11-16T09:39:02.181Z,99.99
2023-11-16T09:40:02.244Z,99.99
2023-11-16T09:41:02.155Z,99.99
2023-11-16T09:42:02.155Z,99.99
2023-11-16T09:43:02.139Z,99.99
2023-11-16T09:44:02.138Z,99.99
2023-11-16T09:45:02.130Z,99.99
2023-11-16T09:46:02.218Z,99.99
2023-11-16T09:47:02.131Z,99.99
2023-11-16T09:48:02.140Z,99.99
2023-11-16T09:49:02.120Z,99.99
2023-11-16T09:50:02.124Z,99.99
2023-11-16T09:51:02.083Z,99.99
2023-11-16T09:52:02.168Z,99.99
2023-11-16T09:53:02.115Z,99.99
2023-11-16T09:54:02.062Z,99.99
2023-11-16T09:55:02.247Z,99.99
2023-11-16T09:56:02.054Z,99.99
2023-11-16T09:57:02.393Z,99.99
2023-11-16T09:58:02.225Z,99.99
2023-11-16T09:59:02.021Z,99.99
2023-11-16T10:00:02.020Z,99.99
2023-11-16T10:01:02.149Z,99.99
2023-11-16T10:02:02.006Z,99.99
2023-11-16T10:03:02.053Z,99.99
2023-11-16T10:04:02.114Z,99.99
2023-11-16T10:05:01.981Z,99.99
2023-11-16T10:06:02.022Z,99.99
2023-11-16T10:07:01.963Z,99.99
2023-11-16T10:08:01.958Z,99.99
2023-11-16T10:09:01.961Z,99.99
2023-11-16T10:10:02.049Z,99.99
2023-11-16T10:11:01.942Z,99.99
2023-11-16T10:12:01.927Z,99.99
2023-11-16T10:13:01.925Z,99.99
2023-11-16T10:14:01.925Z,99.99
2023-11-16T10:15:01.928Z,99.99
2023-11-16T10:16:01.958Z,99.99
2023-11-16T10:17:01.934Z,99.99
2023-11-16T10:18:01.897Z,99.99
2023-11-16T10:19:02.030Z,99.99
2023-11-16T10:20:01.891Z,99.99
2023-11-16T10:21:01.863Z,99.99
2023-11-16T10:22:01.932Z,99.99
2023-11-16T10:23:01.851Z,99.99
2023-11-16T10:24:01.841Z,99.99
2023-11-16T10:25:01.886Z,99.99
2023-11-16T10:26:01.844Z,99.99
2023-11-16T10:27:01.818Z,99.99
2023-11-16T10:28:01.861Z,99.99
2023-11-16T10:29:01.804Z,99.99
2023-11-16T10:30:01.804Z,99.99
2023-11-16T10:31:01.805Z,99.99
2023-11-16T10:32:01.881Z,99.99
2023-11-16T10:33:01.848Z,99.99
2023-11-16T10:34:01.840Z,99.99
2023-11-16T10:35:01.784Z,99.99
2023-11-16T10:36:01.757Z,99.99
2023-11-16T10:37:01.769Z,99.99
2023-11-16T10:38:01.762Z,99.99
2023-11-16T10:39:01.729Z,99.99
2023-11-16T10:40:01.822Z,99.99
2023-11-16T10:41:01.741Z,99.99
2023-11-16T10:42:01.731Z,99.99
2023-11-16T10:43:01.737Z,99.99
2023-11-16T10:44:01.694Z,99.99
2023-11-16T10:45:01.687Z,99.99
2023-11-16T10:46:02.329Z,99.99
2023-11-16T10:47:01.761Z,99.99
2023-11-16T10:48:01.685Z,99.99
2023-11-16T10:49:01.686Z,99.99
2023-11-16T10:50:01.654Z,99.99
2023-11-16T10:51:01.764Z,99.99
2023-11-16T10:52:01.667Z,99.99
2023-11-16T10:53:01.630Z,99.99
2023-11-16T10:54:01.641Z,99.99
2023-11-16T10:55:01.719Z,99.99
2023-11-16T10:56:01.610Z,99.99
2023-11-16T10:57:01.620Z,99.99
2023-11-16T10:58:01.625Z,99.99
2023-11-16T10:59:01.589Z,99.99
2023-11-16T11:00:01.680Z,99.99
2023-11-16T11:01:01.593Z,99.99
2023-11-16T11:02:01.608Z,99.99
2023-11-16T11:03:01.635Z,99.99
2023-11-16T11:04:01.716Z,99.99
2023-11-16T11:05:01.682Z,99.99
2023-11-16T11:06:01.550Z,99.99
2023-11-16T11:07:01.627Z,99.99
2023-11-16T11:08:01.541Z,99.99
2023-11-16T11:09:01.530Z,99.99
2023-11-16T11:10:01.612Z,99.99
2023-11-16T11:11:01.506Z,99.99
2023-11-16T11:12:01.497Z,99.99
2023-11-16T11:13:01.552Z,99.99
2023-11-16T11:14:01.485Z,99.99
2023-11-16T11:15:01.481Z,99.99
2023-11-16T11:16:01.503Z,99.99
2023-11-16T11:17:01.534Z,99.99
2023-11-16T11:18:01.462Z,99.99
2023-11-16T11:19:01.477Z,99.99
2023-11-16T11:20:01.457Z,99.93
2023-11-16T11:21:01.437Z,99.74
2023-11-16T11:22:01.544Z,99.36
2023-11-16T11:23:01.421Z,99.36
2023-11-16T11:24:01.536Z,99.74
2023-11-16T11:25:04.411Z,99.99
2023-11-16T11:26:01.414Z,99.99
2023-11-16T11:27:01.402Z,99.99
2023-11-16T11:28:01.418Z,99.84
2023-11-16T11:29:01.377Z,99.99
2023-11-16T11:30:01.362Z,99.08
2023-11-16T11:31:01.492Z,99.08
2023-11-16T11:32:03.435Z,99.08
2023-11-16T11:33:06.167Z,99.08
2023-11-16T11:34:01.346Z,98.84
2023-11-16T11:35:01.327Z,98.27
2023-11-16T11:36:01.325Z,98.36
2023-11-16T11:37:01.363Z,98.65
2023-11-16T11:38:01.318Z,98.74
2023-11-16T11:39:01.300Z,98.41
2023-11-16T11:40:01.537Z,98.18
2023-11-16T11:41:01.286Z,99.36
2023-11-16T11:42:01.565Z,99.99
2023-11-16T11:43:01.328Z,99.99
2023-11-16T11:44:01.273Z,99.99
2023-11-16T11:45:01.254Z,99.99
2023-11-16T11:46:01.311Z,99.99
2023-11-16T11:47:01.317Z,99.99
2023-11-16T11:48:01.296Z,99.99
2023-11-16T11:49:01.318Z,99.99
2023-11-16T11:50:01.226Z,99.99
2023-11-16T11:51:01.217Z,99.99
2023-11-16T11:52:01.616Z,99.99
2023-11-16T11:53:01.213Z,99.99
2023-11-16T11:54:01.209Z,99.99
2023-11-16T11:55:01.297Z,99.99
2023-11-16T11:56:01.180Z,99.99
2023-11-16T11:57:01.178Z,99.99
2023-11-16T11:58:01.227Z,99.99
2023-11-16T11:59:01.163Z,99.99
2023-11-16T12:00:01.159Z,99.99
2023-11-16T12:01:01.176Z,99.99
2023-11-16T12:02:01.137Z,99.99
2023-11-16T12:03:01.247Z,99.99
2023-11-16T12:04:06.658Z,99.99
2023-11-16T12:05:01.395Z,99.99
2023-11-16T12:06:01.403Z,99.99
2023-11-16T12:07:01.195Z,99.99
2023-11-16T12:08:01.588Z,99.99
2023-11-16T12:09:01.111Z,99.99
2023-11-16T12:10:01.170Z,99.99
2023-11-16T12:11:01.136Z,99.99
2023-11-16T12:12:01.084Z,99.99
2023-11-16T12:13:01.171Z,99.99
2023-11-16T12:14:01.112Z,99.99
2023-11-16T12:15:01.081Z,99.99
2023-11-16T12:16:01.154Z,99.99
2023-11-16T12:17:01.036Z,99.99
2023-11-16T12:18:01.062Z,99.99
2023-11-16T12:19:01.063Z,99.99
2023-11-16T12:20:01.059Z,99.99
2023-11-16T12:21:01.007Z,99.99
2023-11-16T12:22:01.071Z,99.99
2023-11-16T12:23:00.997Z,99.99
2023-11-16T12:24:00.998Z,99.99
2023-11-16T12:25:01.162Z,99.99
2023-11-16T12:26:00.993Z,99.99
2023-11-16T12:27:00.989Z,99.99
2023-11-16T12:28:00.975Z,99.99
2023-11-16T12:29:00.960Z,99.99
2023-11-16T12:30:01.307Z,99.99
2023-11-16T12:31:01.036Z,99.99
2023-11-16T12:32:00.986Z,99.99
2023-11-16T12:33:00.940Z,99.99
2023-11-16T12:34:00.963Z,99.99
2023-11-16T12:35:00.912Z,99.99
2023-11-16T12:36:00.919Z,99.99
2023-11-16T12:37:00.931Z,99.99
2023-11-16T12:38:00.893Z,99.99
2023-11-16T12:39:00.908Z,99.99
2023-11-16T12:40:00.943Z,99.99
2023-11-16T12:41:00.868Z,99.99
2023-11-16T12:42:00.864Z,99.99
2023-11-16T12:43:00.877Z,99.99
2023-11-16T12:44:00.846Z,99.99
2023-11-16T12:45:00.853Z,99.99
2023-11-16T12:46:01.069Z,99.99
2023-11-16T12:47:01.441Z,99.99
2023-11-16T12:48:00.827Z,99.99
2023-11-16T12:49:00.911Z,99.99
2023-11-16T12:50:00.801Z,99.99
2023-11-16T12:51:00.809Z,99.99
2023-11-16T12:52:00.822Z,99.99